Time;durP1;ratioP1;P1;durP2;ratioP2;P2;SDS_P1;SDS_P2;PMS_P1;PMS_P2;Temp;Humidity;BMP_temperature;BMP_pressure;BME280_temperature;BME280_humidity;BME280_pressure;Samples;Min_cycle;Max_cycle;Signal;HPM_P1;HPM_P2
2021/08/18 00:00:54;;;;;;;7.35;5.23;;;;;;;20.32;67.03;99192.22;129716;1093;113595;-62
2021/08/18 00:03:23;;;;;;;6.80;4.40;;;;;;;20.32;66.99;99194.98;129762;1093;22517;-62
2021/08/18 00:05:53;;;;;;;11.03;5.40;;;;;;;20.32;67.25;99205.23;129708;1092;113470;-62
2021/08/18 00:08:22;;;;;;;7.73;4.93;;;;;;;20.32;67.13;99196.94;129854;1092;22982;-61
2021/08/18 00:10:50;;;;;;;9.85;5.40;;;;;;;20.32;67.33;99197.75;129721;1092;114152;-61
2021/08/18 00:13:22;;;;;;;6.78;4.93;;;;;;;20.28;67.46;99198.73;129778;1093;22631;-62
2021/08/18 00:15:51;;;;;;;8.70;5.68;;;;;;;20.25;67.24;99199.38;129834;1093;22870;-63
2021/08/18 00:18:21;;;;;;;7.98;4.70;;;;;;;20.23;67.75;99208.02;129753;1092;114024;-62
2021/08/18 00:21:10;;;;;;;7.18;5.13;;;;;;;20.22;68.21;99211.10;129797;1093;22538;-63
2021/08/18 00:23:58;;;;;;;7.00;5.40;;;;;;;20.20;68.66;99210.65;129741;1092;113585;-62
2021/08/18 00:26:27;;;;;;;8.08;5.20;;;;;;;20.19;69.01;99212.59;129824;1093;22557;-62
2021/08/18 00:28:57;;;;;;;7.33;4.73;;;;;;;20.19;69.15;99211.78;129719;1092;113544;-63
2021/08/18 00:31:27;;;;;;;5.50;4.80;;;;;;;20.19;69.55;99209.02;129824;1093;23648;-62
2021/08/18 00:33:56;;;;;;;8.25;5.00;;;;;;;20.19;69.81;99222.85;129856;1092;22515;-63
2021/08/18 00:36:28;;;;;;;6.23;5.00;;;;;;;20.20;69.96;99218.95;129737;1093;114299;-63
2021/08/18 00:38:57;;;;;;;9.63;5.00;;;;;;;20.20;70.41;99219.73;129791;1093;22594;-64
2021/08/18 00:41:26;;;;;;;9.93;5.63;;;;;;;20.20;70.41;99216.96;129706;1092;114255;-63
2021/08/18 00:43:56;;;;;;;7.15;5.28;;;;;;;20.22;70.81;99211.10;129788;1092;22545;-63
2021/08/18 00:46:25;;;;;;;6.20;4.58;;;;;;;20.21;70.86;99210.29;129838;1093;22543;-65
2021/08/18 00:48:56;;;;;;;9.08;5.88;;;;;;;20.22;71.22;99217.45;129693;1093;113801;-62
2021/08/18 00:51:25;;;;;;;6.65;5.23;;;;;;;20.24;71.35;99217.13;129827;1093;23376;-63
2021/08/18 00:53:53;;;;;;;9.45;5.90;;;;;;;20.24;71.44;99211.59;129701;1093;114106;-63
2021/08/18 00:56:24;;;;;;;7.18;5.10;;;;;;;20.26;71.41;99214.84;129804;1093;22545;-62
2021/08/18 00:58:53;;;;;;;8.60;5.83;;;;;;;20.25;71.35;99214.03;129702;1092;114201;-63
2021/08/18 01:01:22;;;;;;;8.85;5.15;;;;;;;20.26;71.70;99212.89;129848;1093;22550;-62
2021/08/18 01:03:51;;;;;;;7.33;5.18;;;;;;;20.28;71.58;99215.33;129469;1093;22602;-62
2021/08/18 01:06:22;;;;;;;6.50;5.28;;;;;;;20.30;71.89;99215.82;129742;1092;113786;-63
2021/08/18 01:08:51;;;;;;;7.75;5.10;;;;;;;20.32;71.78;99210.77;129823;1093;22623;-63
2021/08/18 01:11:21;;;;;;;10.90;5.98;;;;;;;20.31;71.77;99212.73;129684;1092;113836;-62
2021/08/18 01:13:50;;;;;;;8.05;5.23;;;;;;;20.30;71.55;99215.82;129837;1092;22590;-62
2021/08/18 01:16:23;;;;;;;8.48;6.03;;;;;;;20.28;71.95;99215.33;129815;1093;22525;-63
2021/08/18 01:18:52;;;;;;;7.70;6.10;;;;;;;20.27;71.81;99213.70;129688;1093;114093;-63
2021/08/18 01:21:21;;;;;;;11.60;6.23;;;;;;;20.25;72.11;99222.33;129738;1093;22623;-63
2021/08/18 01:23:56;;;;;;;8.43;5.23;;;;;;;20.25;72.39;99225.09;129728;1093;114038;-63
2021/08/18 01:26:26;;;;;;;9.18;5.15;;;;;;;20.26;72.14;99223.95;129765;1093;22614;-63
2021/08/18 01:28:55;;;;;;;6.18;5.53;;;;;;;20.26;72.18;99220.38;129717;1093;113726;-62
2021/08/18 01:31:24;;;;;;;6.98;5.93;;;;;;;20.24;72.23;99217.94;129797;1093;23097;-64
2021/08/18 01:33:53;;;;;;;6.10;5.10;;;;;;;20.25;72.43;99218.75;129781;1092;23189;-64
2021/08/18 01:36:24;;;;;;;7.00;5.53;;;;;;;20.25;72.38;99218.75;129690;1093;113579;-63
2021/08/18 01:38:54;;;;;;;8.05;5.85;;;;;;;20.22;72.43;99211.10;129769;1093;22531;-63
2021/08/18 01:41:23;;;;;;;8.60;5.98;;;;;;;20.22;72.45;99222.17;129657;1093;115504;-64
2021/08/18 01:43:51;;;;;;;7.90;5.45;;;;;;;20.22;72.77;99224.94;129777;1092;23384;-63
2021/08/18 01:46:21;;;;;;;9.58;6.33;;;;;;;20.21;72.83;99223.30;129799;1093;22533;-64
2021/08/18 01:48:49;;;;;;;9.08;6.93;;;;;;;20.17;72.87;99216.83;129652;1093;113787;-63
2021/08/18 01:51:18;;;;;;;8.83;5.73;;;;;;;20.09;73.03;99205.44;129812;1093;22576;-63
2021/08/18 01:53:47;;;;;;;8.95;5.93;;;;;;;20.05;73.35;99211.98;129649;1093;113967;-63
2021/08/18 01:56:17;;;;;;;7.40;6.60;;;;;;;20.01;73.43;99203.52;129776;1093;22589;-63
2021/08/18 01:59:05;;;;;;;8.20;6.40;;;;;;;19.98;73.79;99201.40;129670;1093;114020;-62
2021/08/18 02:01:34;;;;;;;9.00;6.63;;;;;;;19.93;74.14;99206.28;129761;1093;22573;-62
2021/08/18 02:04:04;;;;;;;7.55;5.68;;;;;;;19.87;74.23;99202.89;129794;1093;22583;-62
2021/08/18 02:06:52;;;;;;;7.35;6.08;;;;;;;19.80;74.45;99197.02;129671;1093;114829;-62
2021/08/18 02:09:21;;;;;;;7.38;5.53;;;;;;;19.76;74.67;99194.09;129788;1093;23091;-62
2021/08/18 02:11:58;;;;;;;10.05;6.70;;;;;;;19.72;74.61;99195.09;129686;1093;113981;-62
2021/08/18 02:14:45;;;;;;;7.18;5.93;;;;;;;19.70;74.92;99189.88;129751;1093;22569;-62
2021/08/18 02:17:33;;;;;;;6.60;5.05;;;;;;;19.69;74.80;99192.97;129675;1093;113827;-62
2021/08/18 02:20:04;;;;;;;10.05;5.93;;;;;;;19.66;74.89;99188.91;129811;1092;22550;-62
2021/08/18 02:22:34;;;;;;;6.18;4.98;;;;;;;19.61;75.31;99178.03;129795;1093;22576;-62
2021/08/18 02:25:04;;;;;;;8.90;5.25;;;;;;;19.54;75.13;99171.36;129714;1093;114135;-61
2021/08/18 02:27:53;;;;;;;8.00;4.83;;;;;;;19.53;75.24;99181.59;129816;1093;22623;-62
2021/08/18 02:30:24;;;;;;;6.90;4.98;;;;;;;19.50;75.59;99181.42;129746;1093;113660;-62
2021/08/18 02:32:53;;;;;;;5.85;4.73;;;;;;;19.47;75.55;99195.88;129787;1093;22589;-62
2021/08/18 02:35:22;;;;;;;5.53;4.73;;;;;;;19.46;75.62;99200.59;129741;1093;113982;-64
2021/08/18 02:37:53;;;;;;;5.65;4.78;;;;;;;19.46;75.99;99210.84;129841;1093;22595;-63
2021/08/18 02:40:33;;;;;;;6.10;4.80;;;;;;;19.48;75.64;99201.06;126997;1093;23382;-62
2021/08/18 02:43:02;;;;;;;6.83;5.15;;;;;;;19.49;75.85;99199.11;129718;1092;113515;-63
2021/08/18 02:45:32;;;;;;;8.83;4.78;;;;;;;19.49;75.68;99197.19;129839;1092;23527;-63
2021/08/18 02:48:01;;;;;;;9.38;6.03;;;;;;;19.50;75.73;99193.29;129719;1093;113801;-62
2021/08/18 02:50:31;;;;;;;5.50;4.53;;;;;;;19.52;75.89;99199.31;129806;1092;22593;-62
2021/08/18 02:53:00;;;;;;;5.53;4.73;;;;;;;19.51;75.73;99199.63;129725;1092;113817;-63
2021/08/18 02:55:47;;;;;;;6.03;5.10;;;;;;;19.49;75.96;99210.16;129816;1092;22527;-62
2021/08/18 02:58:15;;;;;;;6.30;5.38;;;;;;;19.47;76.08;99204.98;129815;1093;22564;-62
2021/08/18 03:00:45;;;;;;;7.73;5.35;;;;;;;19.47;76.18;99198.65;129715;1093;113698;-62
2021/08/18 03:03:14;;;;;;;5.58;4.95;;;;;;;19.46;76.12;99200.59;129874;1092;22547;-62
2021/08/18 03:05:59;;;;;;;9.93;5.70;;;;;;;19.44;76.32;99200.11;129676;1092;113591;-62
2021/08/18 03:08:29;;;;;;;8.48;5.00;;;;;;;19.42;76.47;99192.13;129818;1093;23900;-61
2021/08/18 03:11:17;;;;;;;6.33;5.08;;;;;;;19.41;76.48;99203.51;129719;1093;113787;-61
2021/08/18 03:13:47;;;;;;;5.85;5.25;;;;;;;19.42;76.48;99216.19;129865;1092;23354;-62
2021/08/18 03:16:16;;;;;;;6.03;4.55;;;;;;;19.43;76.78;99212.29;129779;1093;22580;-61
2021/08/18 03:18:46;;;;;;;5.90;5.28;;;;;;;19.44;76.72;99219.45;129707;1093;113834;-62
2021/08/18 03:21:19;;;;;;;7.68;5.05;;;;;;;19.44;76.48;99224.97;129748;1092;22568;-62
2021/08/18 03:23:48;;;;;;;7.00;5.68;;;;;;;19.42;76.53;99228.05;129705;1092;113834;-62
2021/08/18 03:26:23;;;;;;;7.68;5.65;;;;;;;19.40;76.49;99230.33;129791;1093;22605;-62
2021/08/18 03:28:53;;;;;;;13.18;5.50;;;;;;;19.37;76.55;99228.20;129714;1092;114205;-62
2021/08/18 03:31:40;;;;;;;7.63;5.55;;;;;;;19.35;76.43;99224.94;129809;1093;22583;-61
2021/08/18 03:34:09;;;;;;;6.15;5.20;;;;;;;19.33;76.56;99220.91;129816;1093;22530;-62
2021/08/18 03:36:38;;;;;;;7.23;5.28;;;;;;;19.31;76.56;99221.22;129741;1093;113878;-62
2021/08/18 03:39:08;;;;;;;9.55;5.18;;;;;;;19.29;76.67;99239.25;129807;1092;22728;-62
2021/08/18 03:41:57;;;;;;;8.48;5.75;;;;;;;19.28;76.57;99238.44;129703;1093;113764;-62
2021/08/18 03:44:26;;;;;;;8.35;5.80;;;;;;;19.29;76.94;99242.02;129831;1093;23066;-62
2021/08/18 03:46:55;;;;;;;7.35;6.20;;;;;;;19.30;76.94;99238.12;129688;1093;114233;-62
2021/08/18 03:49:24;;;;;;;6.48;5.70;;;;;;;19.25;77.10;99229.97;129791;1092;22872;-62
2021/08/18 03:51:53;;;;;;;8.15;6.18;;;;;;;19.27;76.88;99235.99;129800;1093;22628;-62
2021/08/18 03:54:22;;;;;;;7.13;5.58;;;;;;;19.23;77.27;99246.86;129730;1092;113798;-63
2021/08/18 03:56:52;;;;;;;7.98;5.65;;;;;;;19.23;77.51;99246.05;129812;1093;22712;-63
2021/08/18 03:59:20;;;;;;;7.83;6.38;;;;;;;19.22;77.34;99259.05;129701;1093;113956;-62
2021/08/18 04:01:49;;;;;;;7.63;6.85;;;;;;;19.22;77.49;99263.75;129792;1093;22571;-63
2021/08/18 04:04:18;;;;;;;8.53;7.03;;;;;;;19.21;77.31;99267.65;129813;1093;23775;-64
2021/08/18 04:06:47;;;;;;;7.88;6.50;;;;;;;19.19;77.35;99281.78;129700;1093;113811;-63
2021/08/18 04:09:17;;;;;;;8.28;6.95;;;;;;;19.20;77.67;99282.59;129396;1093;22549;-63
2021/08/18 04:11:46;;;;;;;10.25;7.00;;;;;;;19.20;77.63;99279.83;129710;1093;113641;-67
2021/08/18 04:14:15;;;;;;;9.98;6.65;;;;;;;19.20;77.61;99271.55;129780;1093;23437;-67
2021/08/18 04:16:47;;;;;;;11.48;7.30;;;;;;;19.19;77.87;99267.97;129689;1091;114025;-66
2021/08/18 04:19:24;;;;;;;10.60;7.45;;;;;;;19.20;77.42;99268.78;129803;1093;22580;-64
2021/08/18 04:21:53;;;;;;;9.78;7.50;;;;;;;19.20;77.53;99257.73;129818;1092;22661;-64
2021/08/18 04:24:42;;;;;;;12.15;7.75;;;;;;;19.18;77.57;99258.08;129720;1092;114108;-65
2021/08/18 04:27:10;;;;;;;9.20;6.85;;;;;;;19.15;77.49;99239.38;129764;1092;23694;-64
2021/08/18 04:29:39;;;;;;;8.73;6.53;;;;;;;19.11;77.55;99213.54;129689;1092;113815;-64
2021/08/18 04:32:08;;;;;;;7.95;7.00;;;;;;;19.07;78.23;99209.78;129786;1092;22556;-63
2021/08/18 04:34:37;;;;;;;9.88;7.20;;;;;;;19.02;78.27;99212.72;129761;1093;23196;-64
2021/08/18 04:37:10;;;;;;;9.75;6.98;;;;;;;18.99;78.55;99227.16;129663;1092;113604;-66
2021/08/18 04:39:40;;;;;;;12.03;7.00;;;;;;;18.95;78.99;99226.98;128744;1092;22790;-65
2021/08/18 04:42:09;;;;;;;7.70;6.85;;;;;;;18.93;79.30;99222.91;125303;1093;115630;-58
2021/08/18 04:44:40;;;;;;;10.65;6.20;;;;;;;18.94;79.17;99216.25;129649;1092;23437;-61
2021/08/18 04:47:09;;;;;;;10.63;7.55;;;;;;;18.94;79.59;99216.25;129687;1093;114606;-63
2021/08/18 04:49:38;;;;;;;8.08;7.28;;;;;;;18.91;79.45;99212.17;129817;1093;22544;-63
2021/08/18 04:52:07;;;;;;;10.45;7.38;;;;;;;18.86;79.67;99217.05;129789;1093;22544;-63
2021/08/18 04:54:36;;;;;;;9.15;7.28;;;;;;;18.83;79.99;99206.64;129668;1093;114018;-63
2021/08/18 04:57:05;;;;;;;10.05;7.00;;;;;;;18.78;80.13;99221.39;129753;1093;23363;-64
2021/08/18 04:59:51;;;;;;;11.50;7.35;;;;;;;18.73;80.39;99227.08;129692;1092;114193;-63
2021/08/18 05:02:20;;;;;;;8.75;6.58;;;;;;;18.69;80.40;99226.08;129711;1093;22643;-63
2021/08/18 05:04:49;;;;;;;9.90;6.77;;;;;;;18.68;80.71;99230.78;129665;1093;113946;-64
2021/08/18 05:07:19;;;;;;;8.45;7.13;;;;;;;18.67;80.98;99234.67;129793;1093;23424;-63
2021/08/18 05:09:48;;;;;;;10.10;8.15;;;;;;;18.67;81.22;99244.89;129793;1093;23294;-63
2021/08/18 05:12:18;;;;;;;8.75;7.35;;;;;;;18.69;81.56;99254.48;129668;1092;114103;-63
2021/08/18 05:14:49;;;;;;;8.65;7.75;;;;;;;18.73;81.42;99253.86;129720;1093;22551;-63
2021/08/18 05:17:18;;;;;;;6.63;5.95;;;;;;;18.75;81.59;99262.64;129686;1093;114262;-63
2021/08/18 05:20:07;;;;;;;7.03;6.33;;;;;;;18.74;81.57;99261.83;129745;1093;22533;-62
2021/08/18 05:22:36;;;;;;;11.35;6.75;;;;;;;18.71;81.48;99262.45;129778;1093;22572;-58
2021/08/18 05:25:16;;;;;;;8.63;7.50;;;;;;;18.68;81.62;99261.14;129688;1093;113938;-62
2021/08/18 05:27:45;;;;;;;11.50;8.35;;;;;;;18.67;81.94;99267.79;129700;1092;22552;-61
2021/08/18 05:30:15;;;;;;;10.13;7.65;;;;;;;18.68;81.83;99269.42;129664;1092;114127;-59
2021/08/18 05:32:44;;;;;;;10.20;6.73;;;;;;;18.65;81.82;99270.05;129755;1093;22545;-60
2021/08/18 05:35:14;;;;;;;7.70;6.95;;;;;;;18.63;81.87;99272.30;129667;1092;113955;-59
2021/08/18 05:37:45;;;;;;;8.75;7.23;;;;;;;18.60;81.78;99274.91;129792;1093;22529;-61
2021/08/18 05:40:29;;;;;;;9.80;8.80;;;;;;;18.53;81.60;99283.59;129774;1092;22523;-63
2021/08/18 05:42:58;;;;;;;13.70;9.83;;;;;;;18.48;81.77;99282.91;129688;1093;114795;-62
2021/08/18 05:45:27;;;;;;;19.95;11.33;;;;;;;18.41;81.53;99279.79;129772;1093;22533;-62
2021/08/18 05:47:56;;;;;;;14.08;11.83;;;;;;;18.36;81.67;99275.20;129676;1093;114121;-62
2021/08/18 05:50:25;;;;;;;12.95;11.08;;;;;;;18.31;81.69;99287.20;129772;1092;22590;-62
2021/08/18 05:52:54;;;;;;;17.90;13.48;;;;;;;18.29;82.03;99285.89;129781;1092;22548;-62
2021/08/18 05:55:23;;;;;;;13.38;11.60;;;;;;;18.25;81.98;99282.94;129627;1093;114078;-63
2021/08/18 05:57:52;;;;;;;13.18;11.63;;;;;;;18.20;81.62;99276.72;129763;1093;22565;-62
2021/08/18 06:00:22;;;;;;;13.58;11.90;;;;;;;18.18;81.69;99284.52;129621;1093;114620;-62
2021/08/18 06:02:51;;;;;;;17.58;13.18;;;;;;;18.15;81.97;99272.17;129742;1092;22552;-62
2021/08/18 06:05:21;;;;;;;13.78;11.38;;;;;;;18.15;81.94;99272.17;129705;1093;114558;-62
2021/08/18 06:07:50;;;;;;;14.05;11.00;;;;;;;18.16;82.31;99275.75;129778;1093;22577;-62
2021/08/18 06:10:19;;;;;;;18.28;10.45;;;;;;;18.18;82.04;99281.77;129771;1093;22581;-62
2021/08/18 06:12:47;;;;;;;12.45;11.15;;;;;;;18.14;81.72;99281.57;129664;1093;114173;-63
2021/08/18 06:15:37;;;;;;;12.40;11.15;;;;;;;18.12;81.85;99291.28;129754;1093;22598;-62
2021/08/18 06:18:06;;;;;;;23.90;12.45;;;;;;;18.10;81.65;99297.10;129707;1093;114604;-62
2021/08/18 06:20:35;;;;;;;13.58;11.95;;;;;;;18.13;82.15;99310.27;129769;1092;22557;-62
2021/08/18 06:23:04;;;;;;;14.45;13.05;;;;;;;18.18;82.35;99320.38;129669;1093;114653;-62
2021/08/18 06:25:32;;;;;;;17.28;14.05;;;;;;;18.21;82.53;99319.72;129812;1093;24497;-62
2021/08/18 06:28:01;;;;;;;19.25;16.30;;;;;;;18.25;82.30;99315.22;129792;1093;23458;-62
2021/08/18 06:30:30;;;;;;;19.15;16.95;;;;;;;18.25;81.92;99302.24;129701;1092;114149;-62
2021/08/18 06:32:59;;;;;;;21.23;17.53;;;;;;;18.22;81.88;99286.31;129786;1093;22545;-62
2021/08/18 06:35:28;;;;;;;22.08;18.18;;;;;;;18.18;81.74;99282.55;129734;1092;114191;-62
2021/08/18 06:37:57;;;;;;;22.00;17.70;;;;;;;18.13;81.97;99273.61;129755;1093;22532;-62
2021/08/18 06:40:26;;;;;;;22.45;16.40;;;;;;;18.08;81.84;99265.45;129784;1093;23560;-62
2021/08/18 06:43:04;;;;;;;20.60;18.13;;;;;;;18.04;82.12;99287.31;129703;1093;114537;-62
2021/08/18 06:45:33;;;;;;;20.20;18.05;;;;;;;18.03;82.51;99311.31;129790;1093;22544;-62
2021/08/18 06:48:02;;;;;;;21.58;16.98;;;;;;;18.05;82.57;99318.45;129687;1093;113955;-62
2021/08/18 06:50:32;;;;;;;26.53;16.85;;;;;;;18.08;82.62;99320.59;129786;1093;22517;-62
2021/08/18 06:53:01;;;;;;;25.13;17.88;;;;;;;18.07;82.61;99319.78;129789;1093;22574;-61
2021/08/18 06:55:30;;;;;;;18.48;16.48;;;;;;;18.06;82.73;99317.33;129699;1093;114151;-62
2021/08/18 06:57:59;;;;;;;23.40;18.43;;;;;;;18.07;82.96;99308.75;129825;1092;23521;-62
2021/08/18 07:00:28;;;;;;;21.73;17.65;;;;;;;18.09;83.06;99305.69;129680;1092;113480;-62
2021/08/18 07:02:57;;;;;;;25.23;19.30;;;;;;;18.09;83.20;99312.02;129846;1093;22608;-63
2021/08/18 07:05:32;;;;;;;26.47;22.47;;;;;;;18.12;83.28;99305.88;129687;1093;114332;-63
2021/08/18 07:08:01;;;;;;;23.08;20.68;;;;;;;18.12;83.13;99283.00;129787;1093;22518;-63
2021/08/18 07:10:29;;;;;;;22.08;19.05;;;;;;;18.08;83.12;99288.33;129819;1093;22534;-63
2021/08/18 07:12:59;;;;;;;24.85;17.98;;;;;;;18.07;83.37;99272.09;129714;1092;114003;-61
2021/08/18 07:15:29;;;;;;;22.38;18.33;;;;;;;18.03;83.32;99260.90;129781;1093;22633;-62
2021/08/18 07:18:17;;;;;;;23.05;16.93;;;;;;;17.96;83.08;99249.48;129706;1093;114379;-63
2021/08/18 07:20:47;;;;;;;18.00;15.75;;;;;;;17.85;83.22;99245.35;129797;1093;23151;-63
2021/08/18 07:23:16;;;;;;;14.83;13.33;;;;;;;17.78;83.42;99250.47;129678;1093;114521;-63
2021/08/18 07:25:45;;;;;;;14.73;13.33;;;;;;;17.72;83.60;99254.48;129796;1093;22584;-63
2021/08/18 07:28:14;;;;;;;15.48;13.85;;;;;;;17.71;83.82;99244.59;129826;1092;22531;-62
2021/08/18 07:30:43;;;;;;;14.78;13.10;;;;;;;17.69;83.92;99242.14;129695;1093;114435;-62
2021/08/18 07:33:12;;;;;;;13.28;11.90;;;;;;;17.67;84.05;99236.13;129816;1093;22604;-62
2021/08/18 07:35:41;;;;;;;15.45;13.53;;;;;;;17.67;84.26;99225.10;129689;1093;114052;-62
2021/08/18 07:38:14;;;;;;;13.95;12.53;;;;;;;17.66;84.19;99226.23;129793;1093;22619;-62
2021/08/18 07:40:43;;;;;;;14.48;12.63;;;;;;;17.63;84.28;99235.08;129800;1093;23568;-63
2021/08/18 07:43:12;;;;;;;13.58;12.23;;;;;;;17.64;84.18;99239.49;129721;1093;114597;-63
2021/08/18 07:45:41;;;;;;;15.25;13.75;;;;;;;17.66;84.52;99243.58;129773;1093;23862;-62
2021/08/18 07:48:10;;;;;;;19.78;13.83;;;;;;;17.69;84.51;99242.14;129688;1093;114144;-63
2021/08/18 07:50:39;;;;;;;15.95;14.38;;;;;;;17.70;84.48;99248.47;129767;1092;22542;-63
2021/08/18 07:53:08;;;;;;;16.53;13.93;;;;;;;17.69;84.38;99249.59;129677;1092;114266;-63
2021/08/18 07:55:37;;;;;;;14.90;13.40;;;;;;;17.67;84.40;99247.14;129821;1093;22559;-63
2021/08/18 07:58:06;;;;;;;15.73;13.85;;;;;;;17.66;84.14;99251.02;129783;1093;22619;-62
2021/08/18 08:00:38;;;;;;;16.18;14.58;;;;;;;17.69;84.08;99253.16;129667;1092;114148;-62
2021/08/18 08:03:07;;;;;;;17.85;16.05;;;;;;;17.70;84.29;99254.80;129809;1093;23447;-63
2021/08/18 08:05:46;;;;;;;23.63;16.73;;;;;;;17.73;84.48;99262.45;129724;1093;114332;-63
2021/08/18 08:08:16;;;;;;;27.20;16.07;;;;;;;17.79;84.63;99255.67;129786;1093;23364;-62
2021/08/18 08:10:45;;;;;;;21.20;15.75;;;;;;;17.82;84.45;99249.54;129773;1092;23635;-63
2021/08/18 08:13:14;;;;;;;17.73;15.83;;;;;;;17.83;84.37;99242.09;129731;1093;114350;-63
2021/08/18 08:15:43;;;;;;;18.93;15.63;;;;;;;17.84;84.48;99250.05;129797;1092;23703;-62
2021/08/18 08:18:12;;;;;;;15.95;14.35;;;;;;;17.87;84.29;99245.86;129680;1093;114388;-62
2021/08/18 08:20:43;;;;;;;18.48;15.18;;;;;;;17.85;83.84;99246.16;129820;1092;22528;-63
2021/08/18 08:23:12;;;;;;;16.93;15.18;;;;;;;17.83;83.54;99253.11;129680;1092;114409;-63
2021/08/18 08:25:42;;;;;;;16.85;15.25;;;;;;;17.82;83.80;99256.98;129775;1093;22592;-63
2021/08/18 08:28:11;;;;;;;17.25;15.15;;;;;;;17.83;83.94;99259.44;129802;1093;22630;-64
2021/08/18 08:30:40;;;;;;;17.28;15.45;;;;;;;17.88;83.71;99264.84;129680;1092;115766;-63
2021/08/18 08:33:12;;;;;;;18.90;14.35;;;;;;;17.92;83.86;99276.84;129807;1093;22612;-63
2021/08/18 08:35:41;;;;;;;17.60;14.05;;;;;;;17.96;83.74;99271.53;129739;1093;114571;-62
2021/08/18 08:38:10;;;;;;;19.30;14.80;;;;;;;17.97;83.31;99265.71;129785;1093;22587;-63
2021/08/18 08:43:22;;;;;;;17.90;15.35;;;;;;;18.05;83.73;99271.59;125677;1093;22788;-61
2021/08/18 08:45:51;;;;;;;16.10;14.28;;;;;;;18.10;83.61;99276.98;125373;1093;22785;-62
2021/08/18 08:48:20;;;;;;;18.53;14.85;;;;;;;18.14;83.35;99272.48;129751;1093;113584;-63
2021/08/18 08:50:49;;;;;;;15.73;13.35;;;;;;;18.16;83.06;99275.75;129840;1093;23401;-62
2021/08/18 08:53:18;;;;;;;17.88;14.85;;;;;;;18.17;82.89;99280.95;129710;1093;113735;-62
2021/08/18 08:55:48;;;;;;;15.45;13.85;;;;;;;18.16;82.82;99282.08;129836;1092;22897;-62
2021/08/18 08:58:16;;;;;;;22.58;16.13;;;;;;;18.17;82.73;99277.38;129806;1093;23020;-62
2021/08/18 09:00:45;;;;;;;18.68;15.30;;;;;;;18.19;83.06;99286.13;129692;1093;114303;-62
2021/08/18 09:03:15;;;;;;;16.15;13.78;;;;;;;18.21;82.69;99284.69;129797;1091;23119;-62
2021/08/18 09:05:46;;;;;;;18.55;14.95;;;;;;;18.22;82.52;99283.56;129747;1091;113807;-62
2021/08/18 09:08:24;;;;;;;15.45;13.33;;;;;;;18.22;82.24;99283.56;129792;1093;22591;-62
2021/08/18 09:11:05;;;;;;;18.28;14.23;;;;;;;18.17;82.12;99271.86;129834;1093;22495;-62
2021/08/18 09:13:44;;;;;;;17.75;15.28;;;;;;;18.14;82.41;99284.33;129701;1093;113721;-63
2021/08/18 09:16:15;;;;;;;16.85;14.13;;;;;;;18.10;82.32;99277.80;129783;1092;23522;-62
2021/08/18 09:18:44;;;;;;;15.10;13.65;;;;;;;18.08;82.52;99280.05;129683;1093;114280;-62
2021/08/18 09:21:36;;;;;;;15.65;14.08;;;;;;;18.05;82.21;99280.67;129859;1093;22543;-62
2021/08/18 09:24:11;;;;;;;14.83;13.33;;;;;;;17.99;81.94;99277.25;129725;1093;114029;-61
2021/08/18 09:26:41;;;;;;;13.87;11.37;;;;;;;17.96;82.18;99282.56;129817;1092;22594;-62
2021/08/18 09:29:10;;;;;;;15.15;10.78;;;;;;;17.93;81.97;99285.94;129793;1092;22635;-62
2021/08/18 09:31:38;;;;;;;14.53;12.00;;;;;;;17.93;82.12;99283.99;129720;1092;113430;-62
2021/08/18 09:34:11;;;;;;;14.83;11.58;;;;;;;17.93;81.89;99288.69;129778;1093;23390;-62
2021/08/18 09:36:40;;;;;;;13.88;11.63;;;;;;;17.95;82.16;99294.71;129752;1092;114071;-62
2021/08/18 09:39:20;;;;;;;15.08;12.63;;;;;;;17.97;82.28;99298.79;129819;1093;22738;-62
2021/08/18 09:41:49;;;;;;;14.95;13.05;;;;;;;18.01;82.36;99302.56;129705;1093;114650;-62
2021/08/18 09:44:21;;;;;;;11.78;10.58;;;;;;;18.03;82.37;99297.52;129802;1093;22574;-62
2021/08/18 09:47:05;;;;;;;16.30;11.80;;;;;;;18.05;82.19;99294.45;129842;1093;22547;-62
2021/08/18 09:49:36;;;;;;;12.70;11.33;;;;;;;18.08;82.22;99302.11;129730;1092;114346;-62
2021/08/18 09:52:05;;;;;;;13.18;11.78;;;;;;;18.12;81.99;99310.58;129816;1093;23380;-62
2021/08/18 09:54:36;;;;;;;14.45;12.53;;;;;;;18.15;82.19;99319.05;129726;1093;113934;-62
2021/08/18 09:57:07;;;;;;;13.00;11.18;;;;;;;18.17;82.21;99316.80;129804;1093;23439;-64
2021/08/18 09:59:43;;;;;;;13.55;10.88;;;;;;;18.21;82.34;99316.97;129656;1092;114121;-63
2021/08/18 10:02:12;;;;;;;12.45;10.90;;;;;;;18.24;81.78;99319.10;129789;1093;23649;-64
2021/08/18 10:04:41;;;;;;;12.38;10.45;;;;;;;18.27;81.96;99315.72;129755;1093;22699;-62
2021/08/18 10:07:29;;;;;;;11.60;10.43;;;;;;;18.31;81.81;99305.70;129717;1093;113885;-62
2021/08/18 10:09:58;;;;;;;12.40;10.08;;;;;;;18.34;81.94;99313.33;129761;1093;22568;-62
2021/08/18 10:12:26;;;;;;;12.95;11.55;;;;;;;18.35;82.02;99312.20;129702;1093;114333;-62
2021/08/18 10:15:01;;;;;;;13.65;11.25;;;;;;;18.40;82.26;99311.27;129711;1095;22576;-62
2021/08/18 10:17:30;;;;;;;15.20;11.63;;;;;;;18.41;81.73;99301.86;129644;1094;114390;-62
2021/08/18 10:19:59;;;;;;;15.30;11.03;;;;;;;18.42;81.72;99304.30;129714;1095;22633;-62
2021/08/18 10:22:28;;;;;;;14.28;11.68;;;;;;;18.43;81.82;99299.61;129763;1093;22567;-62
2021/08/18 10:24:57;;;;;;;13.85;11.45;;;;;;;18.45;81.71;99298.16;129618;1095;114553;-63
2021/08/18 10:27:46;;;;;;;16.65;11.85;;;;;;;18.48;81.71;99291.99;129722;1095;22591;-64
2021/08/18 10:30:25;;;;;;;13.50;12.10;;;;;;;18.52;81.81;99298.52;129653;1094;113854;-63
2021/08/18 10:32:53;;;;;;;16.35;12.90;;;;;;;18.55;81.55;99303.41;129696;1093;23698;-61
2021/08/18 10:35:35;;;;;;;16.28;12.23;;;;;;;18.58;81.61;99300.05;129641;1094;114297;-62
2021/08/18 10:38:26;;;;;;;25.90;15.03;;;;;;;18.59;81.30;99298.92;129727;1094;22744;-62
2021/08/18 10:40:55;;;;;;;18.43;14.70;;;;;;;18.61;81.22;99293.09;129751;1095;23016;-63
2021/08/18 10:43:56;;;;;;;16.98;14.60;;;;;;;18.63;81.39;99288.05;129637;1095;114956;-62
2021/08/18 10:46:25;;;;;;;14.05;11.58;;;;;;;18.68;80.99;99296.20;129833;1093;22633;-62
2021/08/18 10:48:54;;;;;;;12.75;11.53;;;;;;;18.70;80.71;99282.91;129706;1092;113816;-62
2021/08/18 10:51:40;;;;;;;14.63;10.55;;;;;;;18.75;80.67;99273.68;129914;1093;22562;-62
2021/08/18 10:54:27;;;;;;;13.08;10.98;;;;;;;18.79;80.25;99269.13;129764;1093;113924;-63
2021/08/18 10:56:59;;;;;;;12.08;10.40;;;;;;;18.80;79.73;99266.06;130086;1090;22635;-62
2021/08/18 10:59:37;;;;;;;12.63;10.13;;;;;;;18.83;79.28;99265.42;129982;1093;114014;-63
2021/08/18 11:02:07;;;;;;;11.00;9.90;;;;;;;18.85;79.24;99265.92;130126;1092;22531;-63
2021/08/18 11:04:43;;;;;;;10.45;9.38;;;;;;;18.91;79.40;99261.88;130062;1090;23497;-62
2021/08/18 11:07:12;;;;;;;12.35;9.75;;;;;;;18.97;78.81;99257.03;129982;1092;114177;-62
2021/08/18 11:09:50;;;;;;;10.88;9.78;;;;;;;19.02;78.41;99256.90;130101;1090;22620;-62
2021/08/18 11:12:41;;;;;;;12.23;9.70;;;;;;;19.04;78.26;99247.13;130027;1088;113633;-62
2021/08/18 11:15:19;;;;;;;10.08;9.08;;;;;;;19.10;78.11;99245.05;130103;1089;22520;-62
2021/08/18 11:17:55;;;;;;;9.05;8.25;;;;;;;19.13;77.28;99243.59;129977;1090;113944;-61
2021/08/18 11:20:34;;;;;;;8.85;6.88;;;;;;;19.14;76.41;99251.56;130084;1090;22547;-61
2021/08/18 11:23:10;;;;;;;8.50;6.68;;;;;;;19.13;75.24;99249.13;130121;1090;22638;-61
2021/08/18 11:25:43;;;;;;;7.50;6.70;;;;;;;19.08;75.45;99241.79;129980;1090;114118;-61
2021/08/18 11:28:21;;;;;;;8.35;7.53;;;;;;;19.11;76.23;99232.87;130117;1090;22581;-62
2021/08/18 11:31:04;;;;;;;7.80;6.68;;;;;;;19.18;75.88;99224.13;130029;1090;113798;-62
2021/08/18 11:33:34;;;;;;;9.45;7.68;;;;;;;19.22;76.01;99220.38;130098;1089;22538;-61
2021/08/18 11:36:12;;;;;;;8.28;7.25;;;;;;;19.27;76.11;99217.47;129938;1092;113871;-61
2021/08/18 11:38:42;;;;;;;9.20;8.30;;;;;;;19.34;75.84;99216.97;130141;1090;22612;-62